Jump to content


AMERICAN CONNECTION FLIGHT AA5751 FLOWN ON 04-15-2018 BY CAPTAIN JIM BOERMAN

Pilot StatsCaptain Jim Boerman (LDP136) • 4,870.7 total hours • 1,472 total flights [View Logbook]
FLIGHT DETAILS
StatusReceived and approved on 2018-04-15 at 11:04:19
Origin AirportBirmingham Intl (KBHM) • Birmingham, Alabama, United States (644 feet MSL)
Filed Flight PlanKBHM VUZ Q30 SQS J52 TXK J131 FUZ KDFW
Destination AirportDallas-Ft Worth Intl (KDFW) • Dallas-Ft Worth, Texas, United States (607 feet MSL)
Alternate AirportWaco Regl (KACT) • Waco, Texas, United States (516 feet MSL)
AirlineAmerican Connection
AircraftBombardier CRJ-900 (CR9 / CRJ-900)
FS Aircraft UsedCRJ900ER American Eagle N248LR
Cruising AltitudeFL340
Distance Flown518 nautical miles
Passengers Onboard53 passengers (61.63% full)
DEPARTURE DETAILS
Time Out08:10:59
Taxi Data66,206 lbs total with 10,830 lbs of fuel onboard
Takeoff Data08:29:42 (19 minutes after leaving gate/ramp) • 65,634 lbs total • 6° pitch at 156 knots
Departure METARKBHM 151210Z 31004KT 5SM -RA BR BKN006 OVC041 08/08 A2983 RMK AO2 P0001 T00830078 $
ARRIVAL DETAILS
Landing Data10:06:32 • 60,162 lbs total • 3° pitch doing 115 knots at a rate of -244.53 feet/minute with 4,263 lbs of fuel onboard
Time In10:24:15 (18 minutes after landing)
Ramp Weight59,596 lbs total
Total Fuel Used6,567 lbs
Total Block Time02:13:15 (2.2 hours) while 36 minutes were spent on the ground
Arrival METARKDFW 151453Z 33018G26KT 10SM CLR 07/M07 A3021 RMK AO2 PK WND 34027/1420 SLP229 T00721067 51022
MISCELLANEOUS DETAILS
LiveDISPATCH Version4.8.3.1
FS Version
FSUIPC Version5.12
OS VersionWindows 7 32-bit
Screen Resolution1920 x 1080
Pilot's CommentsNo Comments Reported
FLIGHT MAP